Time,TemperatureF,DewpointF,PressureIn,WindDirection,WindDirectionDegrees,WindSpeedMPH,WindSpeedGustMPH,Humidity,HourlyPrecipIn,Conditions,Clouds,dailyrainin,SoftwareType,DateUTC
2013-05-12 00:06:00,59.2,48.2,30.24,ESE,112,6.3,-999.0,67,-99.99,,,0.00,Acu-Link.com,2013-05-12 05:06:00,
2013-05-12 00:21:00,58.8,47.9,30.24,ENE,67,5.1,-999.0,67,-99.99,,,0.00,Acu-Link.com,2013-05-12 05:21:00,
2013-05-12 00:37:00,57.6,47.8,30.24,ENE,67,0.0,-999.0,70,-99.99,,,0.00,Acu-Link.com,2013-05-12 05:37:00,
2013-05-12 00:52:00,56.5,48.7,30.26,SE,135,0.0,-999.0,75,-99.99,,,0.00,Acu-Link.com,2013-05-12 05:52:00,
2013-05-12 01:07:00,55.6,47.4,30.26,ESE,112,0.0,-999.0,74,-99.99,,,0.00,Acu-Link.com,2013-05-12 06:07:00,
2013-05-12 01:22:00,55.0,47.3,30.26,NW,315,0.0,-999.0,75,-99.99,,,0.00,Acu-Link.com,2013-05-12 06:22:00,
2013-05-12 01:37:00,54.3,47.9,30.26,NE,45,1.1,-999.0,79,-99.99,,,0.00,Acu-Link.com,2013-05-12 06:37:00,
2013-05-12 01:53:00,55.0,47.3,30.25,ESE,112,0.0,-999.0,75,-99.99,,,0.00,Acu-Link.com,2013-05-12 06:53:00,
2013-05-12 02:08:00,55.0,47.3,30.25,ENE,67,0.0,-999.0,75,-99.99,,,0.00,Acu-Link.com,2013-05-12 07:08:00,
2013-05-12 02:23:00,55.0,46.9,30.25,NE,45,4.7,-999.0,74,-99.99,,,0.00,Acu-Link.com,2013-05-12 07:23:00,
2013-05-12 02:38:00,54.7,47.3,30.24,NE,45,4.7,-999.0,76,-99.99,,,0.00,Acu-Link.com,2013-05-12 07:38:00,
2013-05-12 02:53:00,53.6,47.6,30.23,ENE,67,4.3,-999.0,80,-99.99,,,0.00,Acu-Link.com,2013-05-12 07:53:00,
2013-05-12 03:08:00,53.8,47.4,30.23,ENE,67,4.7,-999.0,79,-99.99,,,0.00,Acu-Link.com,2013-05-12 08:08:00,
2013-05-12 03:23:00,54.5,47.1,30.23,NE,45,6.3,-999.0,76,-99.99,,,0.00,Acu-Link.com,2013-05-12 08:23:00,
2013-05-12 03:39:00,55.0,46.9,30.23,ENE,67,6.7,-999.0,74,-99.99,,,0.00,Acu-Link.com,2013-05-12 08:39:00,
2013-05-12 03:54:00,53.6,46.6,30.23,East,90,1.1,-999.0,77,-99.99,,,0.00,Acu-Link.com,2013-05-12 08:54:00,
2013-05-12 04:09:00,52.7,46.4,30.23,East,90,1.1,-999.0,79,-99.99,,,0.00,Acu-Link.com,2013-05-12 09:09:00,
2013-05-12 04:24:00,52.5,45.9,30.23,East,90,1.1,-999.0,78,-99.99,,,0.00,Acu-Link.com,2013-05-12 09:24:00,
2013-05-12 04:39:00,52.5,46.2,30.22,ENE,67,3.1,-999.0,79,-99.99,,,0.00,Acu-Link.com,2013-05-12 09:39:00,
2013-05-12 04:54:00,52.0,45.7,30.22,NE,45,0.0,-999.0,79,-99.99,,,0.00,Acu-Link.com,2013-05-12 09:54:00,
2013-05-12 05:09:00,51.4,46.1,30.22,ENE,67,0.0,-999.0,82,-99.99,,,0.00,Acu-Link.com,2013-05-12 10:09:00,
2013-05-12 05:25:00,51.1,46.1,30.22,SE,135,0.0,-999.0,83,-99.99,,,0.00,Acu-Link.com,2013-05-12 10:25:00,
2013-05-12 05:40:00,50.5,46.2,30.22,SSE,157,0.0,-999.0,85,-99.99,,,0.00,Acu-Link.com,2013-05-12 10:40:00,
2013-05-12 05:55:00,50.4,46.9,30.22,WSW,247,0.0,-999.0,88,-99.99,,,0.00,Acu-Link.com,2013-05-12 10:55:00,
2013-05-12 06:10:00,49.6,46.2,30.22,West,270,0.0,-999.0,88,-99.99,,,0.00,Acu-Link.com,2013-05-12 11:10:00,
2013-05-12 06:25:00,47.8,47.3,30.23,West,270,0.0,-999.0,98,-99.99,,,0.00,Acu-Link.com,2013-05-12 11:25:00,
2013-05-12 06:41:00,46.8,46.2,30.24,WSW,247,0.0,-999.0,98,-99.99,,,0.00,Acu-Link.com,2013-05-12 11:41:00,
2013-05-12 06:56:00,47.1,46.6,30.23,West,270,0.0,-999.0,98,-99.99,,,0.00,Acu-Link.com,2013-05-12 11:56:00,
2013-05-12 07:11:00,47.3,46.8,30.24,West,270,0.0,-999.0,98,-99.99,,,0.00,Acu-Link.com,2013-05-12 12:11:00,
2013-05-12 07:26:00,48.4,47.3,30.24,West,270,0.0,-999.0,96,-99.99,,,0.00,Acu-Link.com,2013-05-12 12:26:00,
2013-05-12 07:41:00,49.8,47.3,30.25,West,270,0.0,-999.0,91,-99.99,,,0.00,Acu-Link.com,2013-05-12 12:41:00,
2013-05-12 07:57:00,52.2,49.9,30.25,NNE,22,2.2,-999.0,92,-99.99,,,0.00,Acu-Link.com,2013-05-12 12:57:00,
2013-05-12 08:12:00,55.2,49.8,30.26,North,0,1.1,-999.0,82,-99.99,,,0.00,Acu-Link.com,2013-05-12 13:12:00,
2013-05-12 08:27:00,58.1,50.2,30.26,NNW,337,4.3,-999.0,75,-99.99,,,0.00,Acu-Link.com,2013-05-12 13:27:00,
2013-05-12 08:42:00,60.6,47.5,30.26,NNE,22,0.0,-999.0,62,-99.99,,,0.00,Acu-Link.com,2013-05-12 13:42:00,
2013-05-12 08:58:00,61.5,46.6,30.27,SE,135,0.0,-999.0,58,-99.99,,,0.00,Acu-Link.com,2013-05-12 13:58:00,
2013-05-12 09:13:00,61.2,45.8,30.27,SSW,202,0.0,-999.0,57,-99.99,,,0.00,Acu-Link.com,2013-05-12 14:13:00,
2013-05-12 09:28:00,62.4,45.1,30.26,SSE,157,0.0,-999.0,53,-99.99,,,0.00,Acu-Link.com,2013-05-12 14:28:00,
2013-05-12 09:43:00,62.8,44.9,30.26,SSE,157,8.3,-999.0,52,-99.99,,,0.00,Acu-Link.com,2013-05-12 14:43:00,
2013-05-12 09:58:00,63.9,45.9,30.26,SSE,157,7.4,-999.0,52,-99.99,,,0.00,Acu-Link.com,2013-05-12 14:58:00,
2013-05-12 10:14:00,64.6,45.5,30.25,SE,135,10.3,-999.0,50,-99.99,,,0.00,Acu-Link.com,2013-05-12 15:14:00,
2013-05-12 10:29:00,66.6,46.3,30.24,ESE,112,6.7,-999.0,48,-99.99,,,0.00,Acu-Link.com,2013-05-12 15:29:00,
2013-05-12 10:44:00,67.3,46.4,30.25,South,180,3.8,-999.0,47,-99.99,,,0.00,Acu-Link.com,2013-05-12 15:44:00,
2013-05-12 10:59:00,69.3,46.4,30.25,South,180,0.0,-999.0,44,-99.99,,,0.00,Acu-Link.com,2013-05-12 15:59:00,
2013-05-12 11:14:00,70.9,45.3,30.25,South,180,0.0,-999.0,40,-99.99,,,0.00,Acu-Link.com,2013-05-12 16:14:00,
2013-05-12 11:30:00,72.1,43.0,30.25,SE,135,6.3,-999.0,35,-99.99,,,0.00,Acu-Link.com,2013-05-12 16:30:00,
2013-05-12 11:45:00,71.8,39.5,30.24,SSE,157,5.1,-999.0,31,-99.99,,,0.00,Acu-Link.com,2013-05-12 16:45:00,
2013-05-12 12:00:00,72.0,38.0,30.24,South,180,8.9,-999.0,29,-99.99,,,0.00,Acu-Link.com,2013-05-12 17:00:00,
2013-05-12 12:15:00,74.5,34.2,30.23,ESE,112,11.4,-999.0,23,-99.99,,,0.00,Acu-Link.com,2013-05-12 17:15:00,
2013-05-12 12:30:00,74.5,35.3,30.23,ESE,112,11.4,-999.0,24,-99.99,,,0.00,Acu-Link.com,2013-05-12 17:30:00,
2013-05-12 12:46:00,76.5,35.9,30.22,South,180,11.4,-999.0,23,-99.99,,,0.00,Acu-Link.com,2013-05-12 17:46:00,
2013-05-12 13:01:00,75.6,34.0,30.22,South,180,6.7,-999.0,22,-99.99,,,0.00,Acu-Link.com,2013-05-12 18:01:00,
2013-05-12 13:16:00,75.9,34.3,30.20,SSE,157,5.8,-999.0,22,-99.99,,,0.00,Acu-Link.com,2013-05-12 18:16:00,
2013-05-12 13:31:00,77.0,36.4,30.20,South,180,1.1,-999.0,23,-99.99,,,0.00,Acu-Link.com,2013-05-12 18:31:00,
2013-05-12 13:47:00,78.1,36.1,30.20,South,180,6.3,-999.0,22,-99.99,,,0.00,Acu-Link.com,2013-05-12 18:47:00,
2013-05-12 14:02:00,79.2,39.2,30.18,South,180,13.4,-999.0,24,-99.99,,,0.00,Acu-Link.com,2013-05-12 19:02:00,
2013-05-12 14:17:00,80.2,42.2,30.17,SSW,202,15.0,-999.0,26,-99.99,,,0.00,Acu-Link.com,2013-05-12 19:17:00,
2013-05-12 14:32:00,80.1,44.9,30.17,SSW,202,7.8,-999.0,29,-99.99,,,0.00,Acu-Link.com,2013-05-12 19:32:00,
2013-05-12 14:47:00,80.8,47.3,30.16,WSW,247,10.3,-999.0,31,-99.99,,,0.00,Acu-Link.com,2013-05-12 19:47:00,
2013-05-12 15:03:00,80.4,46.1,30.15,SSE,157,8.3,-999.0,30,-99.99,,,0.00,Acu-Link.com,2013-05-12 20:03:00,
2013-05-12 15:18:00,80.8,49.0,30.13,SSW,202,9.8,-999.0,33,-99.99,,,0.00,Acu-Link.com,2013-05-12 20:18:00,
2013-05-12 15:33:00,81.0,48.3,30.13,SW,225,8.3,-999.0,32,-99.99,,,0.00,Acu-Link.com,2013-05-12 20:33:00,
2013-05-12 15:48:00,82.0,50.1,30.13,WSW,247,8.3,-999.0,33,-99.99,,,0.00,Acu-Link.com,2013-05-12 20:48:00,
2013-05-12 16:03:00,81.3,47.8,30.12,SSW,202,10.3,-999.0,31,-99.99,,,0.00,Acu-Link.com,2013-05-12 21:03:00,
2013-05-12 16:19:00,82.4,50.4,30.11,West,270,6.7,-999.0,33,-99.99,,,0.00,Acu-Link.com,2013-05-12 21:19:00,
2013-05-12 16:34:00,82.9,50.0,30.11,South,180,4.3,-999.0,32,-99.99,,,0.00,Acu-Link.com,2013-05-12 21:34:00,
2013-05-12 16:49:00,82.9,49.2,30.10,South,180,4.3,-999.0,31,-99.99,,,0.00,Acu-Link.com,2013-05-12 21:49:00,
2013-05-12 17:04:00,83.1,49.3,30.09,East,90,8.3,-999.0,31,-99.99,,,0.00,Acu-Link.com,2013-05-12 22:04:00,
2013-05-12 17:19:00,82.4,46.9,30.08,SW,225,8.9,-999.0,29,-99.99,,,0.00,Acu-Link.com,2013-05-12 22:19:00,
2013-05-12 17:35:00,83.5,47.9,30.07,NW,315,4.7,-999.0,29,-99.99,,,0.00,Acu-Link.com,2013-05-12 22:35:00,
2013-05-12 17:50:00,83.3,45.8,30.06,SW,225,10.3,-999.0,27,-99.99,,,0.00,Acu-Link.com,2013-05-12 22:50:00,
2013-05-12 18:05:00,83.8,45.3,30.06,SSW,202,6.7,-999.0,26,-99.99,,,0.00,Acu-Link.com,2013-05-12 23:05:00,
2013-05-12 18:20:00,83.5,46.0,30.05,SSW,202,10.3,-999.0,27,-99.99,,,0.00,Acu-Link.com,2013-05-12 23:20:00,
2013-05-12 18:35:00,84.4,45.7,30.04,South,180,7.4,-999.0,26,-99.99,,,0.00,Acu-Link.com,2013-05-12 23:35:00,
2013-05-12 18:51:00,84.0,46.4,30.03,SW,225,6.3,-999.0,27,-99.99,,,0.00,Acu-Link.com,2013-05-12 23:51:00,
2013-05-12 19:06:00,83.1,45.6,30.03,SSW,202,11.0,-999.0,27,-99.99,,,0.00,Acu-Link.com,2013-05-13 00:06:00,
2013-05-12 19:21:00,82.8,46.3,30.02,South,180,6.7,-999.0,28,-99.99,,,0.00,Acu-Link.com,2013-05-13 00:21:00,
2013-05-12 19:36:00,82.2,46.8,30.02,SSW,202,9.4,-999.0,29,-99.99,,,0.00,Acu-Link.com,2013-05-13 00:36:00,
2013-05-12 19:52:00,81.1,47.6,30.02,South,180,8.9,-999.0,31,-99.99,,,0.00,Acu-Link.com,2013-05-13 00:52:00,
2013-05-12 20:07:00,79.9,49.8,30.01,South,180,8.3,-999.0,35,-99.99,,,0.00,Acu-Link.com,2013-05-13 01:07:00,
2013-05-12 20:22:00,78.3,49.8,30.02,SSW,202,6.7,-999.0,37,-99.99,,,0.00,Acu-Link.com,2013-05-13 01:22:00,
2013-05-12 20:37:00,77.9,48.8,30.02,SSE,157,5.8,-999.0,36,-99.99,,,0.00,Acu-Link.com,2013-05-13 01:37:00,
2013-05-12 20:52:00,77.4,49.0,30.02,South,180,8.9,-999.0,37,-99.99,,,0.00,Acu-Link.com,2013-05-13 01:52:00,
2013-05-12 21:08:00,76.6,48.4,30.03,South,180,6.7,-999.0,37,-99.99,,,0.00,Acu-Link.com,2013-05-13 02:08:00,
2013-05-12 21:23:00,75.7,49.0,30.03,SSE,157,7.8,-999.0,39,-99.99,,,0.00,Acu-Link.com,2013-05-13 02:23:00,
2013-05-12 21:38:00,75.6,48.8,30.04,SE,135,7.4,-999.0,39,-99.99,,,0.00,Acu-Link.com,2013-05-13 02:38:00,
2013-05-12 21:53:00,75.6,48.2,30.04,South,180,9.4,-999.0,38,-99.99,,,0.00,Acu-Link.com,2013-05-13 02:53:00,
2013-05-12 22:08:00,74.7,48.7,30.05,SE,135,4.3,-999.0,40,-99.99,,,0.00,Acu-Link.com,2013-05-13 03:08:00,
2013-05-12 22:24:00,72.0,50.6,30.05,South,180,7.8,-999.0,47,-99.99,,,0.00,Acu-Link.com,2013-05-13 03:24:00,
2013-05-12 22:39:00,72.1,49.0,30.06,South,180,8.9,-999.0,44,-99.99,,,0.00,Acu-Link.com,2013-05-13 03:39:00,
2013-05-12 22:54:00,71.8,49.3,30.05,South,180,8.3,-999.0,45,-99.99,,,0.00,Acu-Link.com,2013-05-13 03:54:00,
2013-05-12 23:09:00,70.9,49.6,30.06,SSE,157,10.3,-999.0,47,-99.99,,,0.00,Acu-Link.com,2013-05-13 04:09:00,
2013-05-12 23:24:00,69.4,50.5,30.07,South,180,6.3,-999.0,51,-99.99,,,0.00,Acu-Link.com,2013-05-13 04:24:00,
2013-05-12 23:40:00,67.8,51.1,30.07,SSW,202,6.3,-999.0,55,-99.99,,,0.00,Acu-Link.com,2013-05-13 04:40:00,
2013-05-12 23:55:00,70.3,50.8,30.07,SSW,202,7.8,-999.0,50,-99.99,,,0.00,Acu-Link.com,2013-05-13 04:55:00,